Time;durP1;ratioP1;P1;durP2;ratioP2;P2;SDS_P1;SDS_P2;PMS_P1;PMS_P2;Temp;Humidity;BMP_temperature;BMP_pressure;BME280_temperature;BME280_humidity;BME280_pressure;Samples;Min_cycle;Max_cycle;Signal;HPM_P1;HPM_P2
2021/11/17 02:26:45;;;;;;;;;60.50;40.75;;;;;18.42;100.00;101672.41;5085883;27;45627;-87
2021/11/17 02:29:16;;;;;;;;;54.50;42.25;;;;;18.38;100.00;101673.69;5113422;27;45564;-87
2021/11/17 02:31:47;;;;;;;;;52.00;36.50;;;;;18.30;100.00;101667.13;5082926;27;45342;-87
2021/11/17 02:34:42;;;;;;;;;55.25;38.00;;;;;18.29;100.00;101656.59;5101271;27;45460;-87
2021/11/17 02:37:19;;;;;;;;;60.25;41.00;;;;;18.42;100.00;101657.22;5049606;28;45671;-87
2021/11/17 02:40:04;;;;;;;;;52.75;38.25;;;;;18.39;100.00;101660.16;5082933;27;48187;-87
2021/11/17 02:42:55;;;;;;;;;60.25;39.75;;;;;18.29;100.00;101651.25;5107732;27;45579;-87
2021/11/17 02:45:52;;;;;;;;;61.50;38.00;;;;;18.38;100.00;101636.25;5095104;27;45450;-87
2021/11/17 02:48:37;;;;;;;;;55.75;39.75;;;;;18.38;100.00;101637.09;5078039;27;45517;-87
2021/11/17 02:51:31;;;;;;;;;54.00;38.75;;;;;18.24;100.00;101638.25;5081960;27;45496;-87
2021/11/17 02:54:05;;;;;;;;;52.25;38.75;;;;;18.20;100.00;101658.22;5095419;27;45799;-87
2021/11/17 02:56:40;;;;;;;;;55.25;39.25;;;;;18.10;100.00;101654.63;5090391;27;45484;-87
2021/11/17 02:59:12;;;;;;;;;54.75;37.75;;;;;18.04;100.00;101665.81;5110403;27;45428;-88
2021/11/17 03:01:47;;;;;;;;;54.75;38.50;;;;;18.15;100.00;101667.59;5089177;27;45556;-87
2021/11/17 03:04:25;;;;;;;;;57.25;41.00;;;;;18.22;100.00;101671.44;5077610;27;45415;-87
2021/11/17 03:07:05;;;;;;;;;52.00;38.75;;;;;18.03;100.00;101668.66;5084907;27;45521;-87
2021/11/17 03:10:18;;;;;;;;;55.00;37.50;;;;;18.01;100.00;101675.94;5079287;27;45501;-87
2021/11/17 03:13:02;;;;;;;;;57.00;40.50;;;;;17.92;100.00;101685.59;5020650;28;46583;-87
2021/11/17 03:15:30;;;;;;;;;60.00;41.25;;;;;17.90;100.00;101688.38;5081598;27;45812;-87
2021/11/17 03:18:08;;;;;;;;;56.75;40.50;;;;;18.03;100.00;101684.69;5100454;27;45283;-87
2021/11/17 03:21:10;;;;;;;;;48.25;31.25;;;;;18.02;100.00;101696.34;5100520;27;45322;-87
2021/11/17 03:23:54;;;;;;;;;54.00;37.50;;;;;17.94;100.00;101700.50;5074538;28;48013;-87
2021/11/17 03:26:23;;;;;;;;;52.25;37.00;;;;;18.12;100.00;101711.47;5091890;27;45284;-87
2021/11/17 03:29:05;;;;;;;;;58.75;40.50;;;;;18.42;100.00;101712.53;5108467;27;45517;-88
2021/11/17 03:31:45;;;;;;;;;60.25;38.75;;;;;18.41;100.00;101711.69;5080489;27;46384;-87
2021/11/17 03:34:23;;;;;;;;;56.50;37.75;;;;;18.40;100.00;101718.00;5109864;27;46357;-87
2021/11/17 03:37:16;;;;;;;;;62.00;39.50;;;;;18.43;100.00;101724.94;5088180;27;45311;-87
2021/11/17 03:40:06;;;;;;;;;53.25;37.50;;;;;18.49;100.00;101727.06;5070371;27;45452;-88
2021/11/17 03:42:53;;;;;;;;;55.25;39.25;;;;;18.58;100.00;101724.50;5052781;28;45595;-87
2021/11/17 03:45:24;;;;;;;;;55.50;39.50;;;;;18.47;100.00;101726.38;5100057;27;45365;-87
2021/11/17 03:47:49;;;;;;;;;56.25;38.75;;;;;18.36;100.00;101716.59;5105734;27;46076;-88
2021/11/17 03:50:14;;;;;;;;;61.50;38.25;;;;;18.37;100.00;101712.94;5100832;27;45430;-87
2021/11/17 03:53:06;;;;;;;;;50.75;37.50;;;;;18.59;100.00;101730.69;5110079;27;45313;-88
2021/11/17 03:55:44;;;;;;;;;50.75;37.00;;;;;18.57;100.00;101727.34;5076750;27;48521;-87
2021/11/17 03:58:33;;;;;;;;;53.00;38.00;;;;;18.67;100.00;101731.72;5067937;27;45305;-87
2021/11/17 04:01:20;;;;;;;;;54.50;40.50;;;;;18.58;100.00;101724.50;5065828;28;45568;-88
2021/11/17 04:04:00;;;;;;;;;56.50;38.50;;;;;18.49;100.00;101725.25;5083709;27;45460;-87
2021/11/17 04:06:51;;;;;;;;;46.25;37.00;;;;;18.59;100.00;101730.69;5079831;27;46139;-87
2021/11/17 04:09:25;;;;;;;;;54.00;37.75;;;;;18.49;100.00;101733.28;5106905;27;45729;-88
2021/11/17 04:12:06;;;;;;;;;52.00;37.50;;;;;18.45;100.00;101733.69;5099059;27;45408;-87
2021/11/17 04:14:44;;;;;;;;;47.00;37.00;;;;;18.62;100.00;101744.69;5109227;27;45329;-87
2021/11/17 04:17:19;;;;;;;;;55.00;38.00;;;;;18.57;100.00;101746.88;5113909;27;45515;-87
2021/11/17 04:19:50;;;;;;;;;56.00;37.75;;;;;18.59;100.00;101750.28;5098908;27;45674;-87
2021/11/17 04:22:42;;;;;;;;;43.25;33.75;;;;;18.66;100.00;101751.44;5102544;27;45359;-87
2021/11/17 04:25:38;;;;;;;;;50.50;36.75;;;;;18.58;100.00;101756.59;5100978;27;45527;-87
2021/11/17 04:28:18;;;;;;;;;44.00;37.25;;;;;18.52;100.00;101761.59;5103160;27;46167;-88
2021/11/17 04:30:52;;;;;;;;;59.25;38.25;;;;;18.38;100.00;101772.63;5081395;27;45657;-87
2021/11/17 04:33:43;;;;;;;;;43.00;34.00;;;;;18.32;100.00;101771.28;5116356;27;45510;-87
2021/11/17 04:36:28;;;;;;;;;50.75;37.50;;;;;18.36;100.00;101774.56;5112026;27;45598;-87
2021/11/17 04:39:07;;;;;;;;;50.25;37.50;;;;;18.38;100.00;101770.81;5083951;27;47067;-88
2021/11/17 04:41:53;;;;;;;;;44.75;35.25;;;;;18.39;100.00;101772.47;5080535;27;45482;-87
2021/11/17 04:44:21;;;;;;;;;50.00;37.25;;;;;18.17;100.00;101781.47;5103121;27;45456;-87
2021/11/17 04:46:57;;;;;;;;;46.25;36.50;;;;;18.26;100.00;101775.34;5102857;27;45427;-87
2021/11/17 04:49:35;;;;;;;;;52.75;37.25;;;;;18.24;100.00;101773.75;5062666;28;47650;-87
2021/11/17 04:52:03;;;;;;;;;41.25;35.00;;;;;18.21;100.00;101779.34;5087785;27;45399;-87
2021/11/17 04:54:32;;;;;;;;;46.75;36.50;;;;;18.37;100.00;101782.47;5114288;27;45548;-87
2021/11/17 04:57:13;;;;;;;;;49.50;36.25;;;;;18.34;100.00;101777.38;5086042;27;45489;-87
2021/11/17 05:00:19;;;;;;;;;45.50;35.25;;;;;18.19;100.00;101776.00;5083896;27;47933;-87
2021/11/17 05:02:51;;;;;;;;;54.00;35.00;;;;;18.43;100.00;101773.94;5043515;27;45456;-87
2021/11/17 05:05:41;;;;;;;;;52.75;38.00;;;;;18.72;100.00;101767.97;5087932;27;45239;-87
2021/11/17 05:08:21;;;;;;;;;45.00;36.75;;;;;18.70;100.00;101762.75;5085398;27;45401;-87
2021/11/17 05:11:12;;;;;;;;;52.25;35.25;;;;;18.60;100.00;101765.34;5097600;27;45397;-87
2021/11/17 05:13:50;;;;;;;;;53.00;34.00;;;;;18.49;100.00;101765.38;5078188;27;45586;-87
2021/11/17 05:16:39;;;;;;;;;55.75;36.75;;;;;18.65;100.00;101763.16;5086865;27;45489;-87
2021/11/17 05:19:10;;;;;;;;;49.50;36.50;;;;;18.81;100.00;101776.06;5068736;27;46514;-87
2021/11/17 05:21:36;;;;;;;;;38.00;28.50;;;;;18.47;100.00;101780.72;5120036;27;45419;-87
2021/11/17 05:24:14;;;;;;;;;43.75;34.00;;;;;18.83;100.00;101774.09;5088145;27;45244;-87
2021/11/17 05:27:18;;;;;;;;;49.00;33.25;;;;;18.80;100.00;101768.16;5097787;27;45439;-87
2021/11/17 05:30:01;;;;;;;;;41.25;30.00;;;;;18.41;100.00;101770.53;5099256;27;45997;-88
2021/11/17 05:32:51;;;;;;;;;38.50;28.75;;;;;18.51;100.00;101766.09;5097837;27;47079;-87
2021/11/17 05:35:38;;;;;;;;;36.00;27.25;;;;;18.49;100.00;101759.19;5109157;27;45602;-87
2021/11/17 05:38:41;;;;;;;;;37.00;26.75;;;;;18.71;100.00;101760.91;5067042;27;45334;-87
2021/11/17 05:41:25;;;;;;;;;36.25;26.25;;;;;18.85;100.00;101757.88;5085439;27;45453;-88
2021/11/17 05:44:02;;;;;;;;;41.50;28.25;;;;;18.94;100.00;101760.63;5101618;27;45623;-87
2021/11/17 05:46:50;;;;;;;;;43.00;29.25;;;;;19.00;100.00;101761.94;5117024;27;45243;-87
2021/11/17 05:49:28;;;;;;;;;43.75;32.00;;;;;19.18;100.00;101762.16;5077975;27;45481;-87
2021/11/17 05:52:12;;;;;;;;;36.75;27.25;;;;;19.14;100.00;101747.34;5095468;27;45294;-87
2021/11/17 05:54:40;;;;;;;;;37.25;27.00;;;;;21.07;100.00;101751.84;5060740;27;47324;-87
2021/11/17 05:57:25;;;;;;;;;37.75;25.75;;;;;20.87;100.00;101745.69;5106499;27;45491;-88
2021/11/17 06:00:19;;;;;;;;;41.50;27.25;;;;;20.97;100.00;101748.34;5115293;27;45520;-88
2021/11/17 06:02:53;;;;;;;;;38.25;25.50;;;;;20.55;100.00;101742.53;5087573;27;45477;-87
2021/11/17 06:05:18;;;;;;;;;42.00;29.25;;;;;20.43;100.00;101743.66;5082849;27;47475;-87
2021/11/17 06:07:44;;;;;;;;;42.00;29.33;;;;;19.87;100.00;101748.84;5083888;27;45435;-87
2021/11/17 06:10:15;;;;;;;;;52.33;31.33;;;;;19.83;100.00;101739.41;5089352;27;45359;-87
2021/11/17 06:12:43;;;;;;;;;47.00;32.25;;;;;19.87;100.00;101730.06;5105750;27;45462;-87
2021/11/17 06:15:12;;;;;;;;;39.00;26.25;;;;;20.32;100.00;101741.94;5101309;27;46237;-87
2021/11/17 06:17:39;;;;;;;;;39.00;30.75;;;;;20.25;100.00;101738.13;5082066;27;45560;-88
2021/11/17 06:20:08;;;;;;;;;42.50;30.50;;;;;20.11;100.00;101738.56;5105692;27;45670;-88
2021/11/17 06:22:35;;;;;;;;;35.25;28.50;;;;;20.30;100.00;101725.16;5069628;27;45389;-89
2021/11/17 06:25:08;;;;;;;;;38.00;33.00;;;;;20.49;100.00;101727.81;5087668;27;46175;-90
2021/11/17 06:27:37;;;;;;;;;38.50;27.25;;;;;20.40;100.00;101738.56;5082322;27;45596;-89
2021/11/17 06:30:05;;;;;;;;;44.00;32.75;;;;;20.36;100.00;101738.03;5107224;27;45518;-89
2021/11/17 06:32:30;;;;;;;;;45.25;30.50;;;;;20.04;100.00;101734.75;5084976;27;45509;-90
2021/11/17 06:34:59;;;;;;;;;38.00;28.75;;;;;19.94;100.00;101736.59;5113753;27;47410;-91
2021/11/17 06:37:27;;;;;;;;;42.25;28.00;;;;;19.69;100.00;101737.94;5082837;27;45460;-87
2021/11/17 06:39:58;;;;;;;;;45.25;30.50;;;;;19.59;100.00;101750.47;5111957;27;45494;-87
2021/11/17 06:42:31;;;;;;;;;35.75;29.25;;;;;19.55;100.00;101739.19;5085218;27;45567;-89
2021/11/17 06:44:57;;;;;;;;;42.50;28.25;;;;;19.58;100.00;101740.75;5108031;27;45563;-88
2021/11/17 06:47:23;;;;;;;;;34.25;27.50;;;;;19.76;100.00;101755.16;5116091;27;45408;-89
2021/11/17 06:49:48;;;;;;;;;37.50;28.00;;;;;19.50;100.00;101767.38;5085198;27;45476;-88
2021/11/17 06:52:14;;;;;;;;;44.00;27.25;;;;;19.53;100.00;101762.59;5107247;27;45471;-88
2021/11/17 06:54:40;;;;;;;;;35.50;28.75;;;;;19.32;100.00;101767.13;5101771;27;45939;-88
2021/11/17 06:57:05;;;;;;;;;40.00;30.50;;;;;19.29;100.00;101773.63;5085629;27;45664;-88
2021/11/17 06:59:31;;;;;;;;;32.50;26.25;;;;;19.33;100.00;101774.19;5099477;27;45357;-89
2021/11/17 07:02:04;;;;;;;;;34.75;29.50;;;;;19.24;100.00;101777.69;5087433;27;45543;-88
2021/11/17 07:04:29;;;;;;;;;41.75;27.75;;;;;19.19;100.00;101796.84;5120569;27;45859;-88
2021/11/17 07:06:55;;;;;;;;;33.50;24.75;;;;;19.33;100.00;101798.28;5108444;27;45342;-88
2021/11/17 07:09:20;;;;;;;;;43.00;32.00;;;;;19.34;100.00;101798.16;5100855;27;45387;-89
2021/11/17 07:11:45;;;;;;;;;37.00;29.00;;;;;19.24;100.00;101807.13;5113574;27;45486;-88
2021/11/17 07:14:13;;;;;;;;;36.25;25.75;;;;;19.29;100.00;101800.41;5091248;27;47031;-88
2021/11/17 07:16:39;;;;;;;;;36.25;26.25;;;;;19.24;100.00;101810.66;5117692;27;45369;-88
2021/11/17 07:19:09;;;;;;;;;33.50;27.50;;;;;19.34;100.00;101818.75;5105295;27;44745;-89
2021/11/17 07:21:35;;;;;;;;;30.75;23.00;;;;;19.21;100.00;101818.94;5086722;27;45481;-89
2021/11/17 07:24:02;;;;;;;;;38.50;24.50;;;;;19.15;100.00;101824.00;5089730;27;46321;-88
2021/11/17 07:26:28;;;;;;;;;36.75;26.25;;;;;19.14;100.00;101835.69;5084154;27;45327;-89
2021/11/17 07:28:53;;;;;;;;;34.75;25.75;;;;;19.16;100.00;101831.06;5117201;27;45282;-89
2021/11/17 07:31:19;;;;;;;;;40.50;25.50;;;;;19.33;100.00;101835.78;5096645;27;45488;-88
2021/11/17 07:33:45;;;;;;;;;33.50;25.00;;;;;19.55;100.00;101843.69;5117635;27;45324;-88
2021/11/17 07:36:11;;;;;;;;;35.50;23.25;;;;;19.24;100.00;101848.16;5097461;27;45240;-88
2021/11/17 07:38:37;;;;;;;;;36.00;24.75;;;;;19.11;100.00;101858.25;5119342;27;45490;-89
2021/11/17 07:41:02;;;;;;;;;42.75;30.25;;;;;19.34;100.00;101859.78;5093914;27;45512;-88
2021/11/17 07:43:28;;;;;;;;;40.00;27.50;;;;;19.32;100.00;101860.88;5103191;27;45156;-88
2021/11/17 07:45:54;;;;;;;;;35.00;26.00;;;;;19.26;100.00;101869.47;5104492;27;45314;-88
2021/11/17 07:48:25;;;;;;;;;30.50;21.25;;;;;19.21;100.00;101856.44;5086529;27;45430;-88
2021/11/17 07:50:51;;;;;;;;;31.50;24.50;;;;;19.28;100.00;101862.16;5102343;27;45329;-89
2021/11/17 07:53:19;;;;;;;;;31.00;24.75;;;;;19.50;100.00;101863.81;5117697;27;45604;-88
2021/11/17 07:55:47;;;;;;;;;40.75;30.00;;;;;19.46;100.00;101857.88;5097124;27;45682;-89
2021/11/17 07:58:13;;;;;;;;;37.00;27.00;;;;;19.54;100.00;101858.06;5091688;27;45456;-90
2021/11/17 08:00:44;;;;;;;;;38.25;29.25;;;;;19.56;100.00;101856.13;5086811;27;45483;-88
2021/11/17 08:03:10;;;;;;;;;44.75;32.00;;;;;19.35;100.00;101856.13;5082042;27;47291;-89
2021/11/17 08:05:37;;;;;;;;;47.75;34.00;;;;;19.24;100.00;101874.09;5069990;28;45453;-90
2021/11/17 08:08:04;;;;;;;;;36.25;27.25;;;;;19.27;100.00;101860.44;5072582;27;45326;-89
2021/11/17 08:10:33;;;;;;;;;38.75;31.00;;;;;19.23;100.00;101857.16;5079244;28;45322;-89
2021/11/17 08:12:59;;;;;;;;;41.75;27.50;;;;;19.21;100.00;101863.66;5059685;28;47130;-89
2021/11/17 08:15:25;;;;;;;;;38.50;29.50;;;;;19.22;100.00;101873.38;5071909;28;45676;-89
2021/11/17 08:17:50;;;;;;;;;40.00;22.25;;;;;19.21;100.00;101871.69;5064909;28;45690;-89
2021/11/17 08:20:18;;;;;;;;;38.50;30.00;;;;;19.25;100.00;101868.59;5069620;28;45441;-89
2021/11/17 08:22:50;;;;;;;;;33.75;29.00;;;;;19.37;100.00;101872.91;5070884;28;46965;-89
2021/11/17 08:25:17;;;;;;;;;37.25;28.00;;;;;19.40;100.00;101877.13;5068713;28;45430;-89
2021/11/17 08:27:43;;;;;;;;;37.50;28.25;;;;;19.34;100.00;101875.84;5066665;28;45532;-88
2021/11/17 08:30:10;;;;;;;;;35.50;27.25;;;;;19.38;100.00;101876.44;5070324;28;45356;-89
2021/11/17 08:32:40;;;;;;;;;34.75;28.00;;;;;19.39;100.00;101878.16;5069105;28;45896;-89
2021/11/17 08:35:08;;;;;;;;;35.00;28.75;;;;;19.31;100.00;101876.09;5062876;28;45507;-89
2021/11/17 08:37:34;;;;;;;;;42.00;29.50;;;;;19.32;100.00;101877.81;5075013;28;45385;-89
2021/11/17 08:40:15;;;;;;;;;37.50;31.00;;;;;19.47;100.00;101880.16;5067030;28;45354;-88
2021/11/17 08:42:41;;;;;;;;;41.25;28.00;;;;;19.37;100.00;101882.78;5056254;28;47040;-88
2021/11/17 08:45:08;;;;;;;;;43.00;33.50;;;;;19.34;100.00;101881.19;5060894;28;45473;-88
2021/11/17 08:47:34;;;;;;;;;50.25;34.00;;;;;19.29;100.00;101888.81;5070992;28;45478;-88
2021/11/17 08:49:59;;;;;;;;;34.00;31.25;;;;;19.45;100.00;101891.00;5066191;28;45493;-89
2021/11/17 08:52:26;;;;;;;;;37.50;31.75;;;;;19.64;100.00;101890.28;5065400;28;45387;-86
2021/11/17 08:54:53;;;;;;;;;38.00;30.25;;;;;19.53;100.00;101885.00;5066409;28;45370;-87
2021/11/17 08:57:20;;;;;;;;;29.50;29.00;;;;;19.59;100.00;101890.66;5060418;28;45680;-89
2021/11/17 08:59:49;;;;;;;;;40.00;29.00;;;;;19.64;100.00;101901.00;5061387;28;45488;-89
2021/11/17 09:02:15;;;;;;;;;48.00;32.75;;;;;19.55;100.00;101894.59;5066257;28;48120;-89
2021/11/17 09:04:42;;;;;;;;;33.00;26.00;;;;;19.64;100.00;101901.00;5100700;27;45465;-89
2021/11/17 09:07:08;;;;;;;;;38.25;29.50;;;;;19.58;100.00;101888.09;5082720;27;45421;-88
2021/11/17 09:09:33;;;;;;;;;47.00;36.00;;;;;19.66;100.00;101893.69;5096596;27;45386;-86
2021/11/17 09:12:00;;;;;;;;;40.25;28.00;;;;;19.60;100.00;101900.41;5082981;27;47817;-89
2021/11/17 09:14:26;;;;;;;;;35.00;26.50;;;;;19.69;100.00;101904.09;5082309;27;46012;-90
2021/11/17 09:16:51;;;;;;;;;42.00;30.75;;;;;19.78;100.00;101912.19;5083852;27;45453;-90
2021/11/17 09:19:17;;;;;;;;;42.00;34.00;;;;;19.84;100.00;101907.28;5104804;27;45468;-89
2021/11/17 09:21:45;;;;;;;;;35.25;31.50;;;;;19.91;100.00;101903.06;5085339;27;47471;-88
2021/11/17 09:24:15;;;;;;;;;39.25;30.50;;;;;19.74;100.00;101908.09;5085342;27;45730;-89
2021/11/17 09:26:41;;;;;;;;;44.75;30.75;;;;;19.86;100.00;101911.50;5113215;27;45486;-86
2021/11/17 09:29:07;;;;;;;;;37.50;33.00;;;;;19.96;100.00;101920.44;5083398;27;45573;-88
2021/11/17 09:31:39;;;;;;;;;42.75;29.50;;;;;20.07;100.00;101908.78;5082934;27;47322;-93
2021/11/17 09:34:06;;;;;;;;;43.00;31.25;;;;;20.00;100.00;101923.72;5101187;27;45715;-90
2021/11/17 09:36:35;;;;;;;;;41.00;27.50;;;;;19.97;100.00;101906.06;5086849;27;45470;-96
2021/11/17 09:39:03;;;;;;;;;41.25;25.25;;;;;20.06;100.00;101909.75;5084880;27;45560;-88
2021/11/17 09:41:32;;;;;;;;;38.75;26.75;;;;;20.57;100.00;101912.31;5083455;27;47542;-90
2021/11/17 09:44:03;;;;;;;;;42.00;31.00;;;;;20.33;100.00;101922.53;5083320;27;45876;-90
2021/11/17 09:46:34;;;;;;;;;37.00;30.50;;;;;20.27;100.00;101907.84;5083051;27;45335;-92
2021/11/17 09:49:22;;;;;;;;;41.00;29.50;;;;;20.56;100.00;101934.75;5081207;27;45828;-88
2021/11/17 09:51:53;;;;;;;;;36.00;26.50;;;;;20.61;100.00;101935.19;5080702;27;47141;-91
2021/11/17 09:54:27;;;;;;;;;40.75;29.25;;;;;20.59;100.00;101938.97;5081577;27;46128;-84
2021/11/17 09:56:57;;;;;;;;;39.00;28.25;;;;;20.79;100.00;101943.38;5081845;27;45564;-84
2021/11/17 09:59:32;;;;;;;;;35.50;28.00;;;;;20.56;100.00;101948.19;5099632;27;45751;-91
2021/11/17 10:02:20;;;;;;;;;37.75;27.25;;;;;20.66;100.00;101940.13;5072740;27;47597;-87
2021/11/17 10:04:50;;;;;;;;;37.50;25.75;;;;;20.44;100.00;101943.91;5110732;27;45774;-88
2021/11/17 10:13:00;;;;;;;;;34.75;24.25;;;;;20.86;100.00;101936.44;5092689;27;45408;-89
2021/11/17 10:15:32;;;;;;;;;39.75;28.50;;;;;21.04;100.00;101950.88;5097370;27;45756;-88
2021/11/17 10:18:07;;;;;;;;;37.50;28.25;;;;;20.94;100.00;101949.19;5083379;27;45636;-88
2021/11/17 10:20:38;;;;;;;;;41.00;28.75;;;;;21.05;100.00;101949.03;5078234;27;45536;-89
2021/11/17 10:23:06;;;;;;;;;38.25;30.75;;;;;21.19;100.00;101945.97;5096275;27;45414;-89
2021/11/17 10:25:51;;;;;;;;;35.50;26.25;;;;;21.27;100.00;101948.78;5101780;27;45799;-89
2021/11/17 10:28:23;;;;;;;;;35.50;28.00;;;;;21.56;100.00;101940.66;5101331;27;45626;-90
2021/11/17 10:31:03;;;;;;;;;40.50;28.25;;;;;21.64;100.00;101948.84;5098018;27;45442;-87
2021/11/17 10:33:44;;;;;;;;;41.25;28.00;;;;;21.35;100.00;101951.59;5083749;27;47118;-87
2021/11/17 10:36:21;;;;;;;;;40.00;32.75;;;;;21.36;100.00;101960.50;5084274;27;45338;-87
2021/11/17 10:38:51;;;;;;;;;42.75;31.25;;;;;21.35;100.00;101945.38;5100464;27;45438;-87
2021/11/17 10:41:29;;;;;;;;;40.75;31.25;;;;;21.39;100.00;101941.41;5100102;27;45413;-87
2021/11/17 10:44:03;;;;;;;;;32.00;25.25;;;;;21.21;100.00;101941.28;5081908;27;47786;-87
2021/11/17 10:46:55;;;;;;;;;37.00;28.50;;;;;21.23;100.00;101947.34;5099610;27;45742;-87
2021/11/17 10:49:27;;;;;;;;;34.00;30.25;;;;;21.30;100.00;101950.34;5073102;27;45406;-87
2021/11/17 10:51:55;;;;;;;;;28.00;23.00;;;;;21.46;100.00;101948.75;5084251;27;45357;-88
2021/11/17 10:54:26;;;;;;;;;40.25;29.25;;;;;21.67;100.00;101938.63;5082887;27;47135;-88
2021/11/17 10:57:10;;;;;;;;;57.00;35.75;;;;;21.92;100.00;101939.81;5085083;27;45812;-87
2021/11/17 10:59:37;;;;;;;;;37.00;26.50;;;;;21.86;100.00;101948.47;5099033;27;45645;-88
2021/11/17 11:02:08;;;;;;;;;32.00;26.50;;;;;21.79;100.00;101933.91;5092377;27;45334;-88
2021/11/17 11:04:49;;;;;;;;;35.50;26.75;;;;;21.84;100.00;101946.94;5099814;27;45671;-88
2021/11/17 11:07:20;;;;;;;;;29.25;22.50;;;;;21.92;100.00;101947.88;5082683;27;45736;-88
2021/11/17 11:09:54;;;;;;;;;29.75;26.00;;;;;21.95;100.00;101946.72;5103082;27;45435;-87
2021/11/17 11:12:23;;;;;;;;;31.75;29.00;;;;;21.95;100.00;101939.50;5101504;27;45283;-88
2021/11/17 11:14:57;;;;;;;;;28.75;25.50;;;;;22.02;100.00;101940.66;5100527;27;46590;-87
2021/11/17 11:18:06;;;;;;;;;45.50;28.50;;;;;22.20;100.00;101942.56;5081183;27;45956;-88
2021/11/17 11:20:44;;;;;;;;;32.50;23.25;;;;;22.82;100.00;101941.72;5078836;27;45370;-87
2021/11/17 11:23:15;;;;;;;;;59.75;37.75;;;;;22.54;100.00;101935.53;5073724;27;45603;-87
2021/11/17 11:25:53;;;;;;;;;36.00;28.50;;;;;22.86;100.00;101929.63;5080490;27;47351;-85
2021/11/17 11:28:21;;;;;;;;;29.25;24.75;;;;;22.70;100.00;101924.06;5093798;27;45359;-86
2021/11/17 11:30:49;;;;;;;;;34.75;30.00;;;;;22.60;100.00;101929.53;5078330;27;45374;-86
2021/11/17 11:33:56;;;;;;;;;30.75;22.25;;;;;22.43;100.00;101927.66;5096497;27;45533;-89
2021/11/17 11:36:21;;;;;;;;;32.50;25.00;;;;;22.38;100.00;101924.59;5078909;27;48295;-88
2021/11/17 11:39:17;;;;;;;;;34.25;25.00;;;;;22.27;100.00;101922.97;5099524;27;45650;-88
2021/11/17 11:42:01;;;;;;;;;32.00;26.00;;;;;22.01;100.00;101928.19;5078250;27;45396;-89
2021/11/17 11:44:36;;;;;;;;;32.25;23.75;;;;;22.31;100.00;101927.03;5097540;27;45623;-89
2021/11/17 11:47:31;;;;;;;;;31.00;24.25;;;;;22.37;100.00;101930.97;5102999;27;45602;-88
2021/11/17 11:50:02;;;;;;;;;32.25;27.75;;;;;22.30;100.00;101928.06;5096939;27;45631;-88
2021/11/17 11:53:00;;;;;;;;;31.50;22.50;;;;;22.34;100.00;101926.72;5096753;27;45446;-89
2021/11/17 11:55:27;;;;;;;;;33.50;28.00;;;;;22.21;100.00;101925.41;5094856;27;45569;-88
2021/11/17 11:58:15;;;;;;;;;22.25;20.00;;;;;22.24;100.00;101927.78;5098222;27;45475;-87
2021/11/17 12:00:41;;;;;;;;;28.25;23.00;;;;;22.20;100.00;101931.78;5094839;27;45432;-88
2021/11/17 12:03:10;;;;;;;;;35.50;27.25;;;;;22.31;100.00;101920.78;5082610;27;45494;-87
2021/11/17 12:05:35;;;;;;;;;27.25;23.75;;;;;22.74;100.00;101929.03;5081324;27;45641;-88
2021/11/17 12:08:30;;;;;;;;;32.75;26.50;;;;;23.08;100.00;101915.69;5067011;28;46869;-88
2021/11/17 12:11:04;;;;;;;;;31.00;24.00;;;;;23.23;100.00;101910.56;5092471;27;45476;-89
2021/11/17 12:13:33;;;;;;;;;29.75;25.00;;;;;23.50;100.00;101909.59;5095732;27;45651;-88
2021/11/17 12:16:07;;;;;;;;;27.75;24.75;;;;;23.61;100.00;101909.34;5084210;27;45459;-87
2021/11/17 12:18:58;;;;;;;;;33.25;30.50;;;;;23.72;100.00;101908.22;5083362;27;47334;-87
2021/11/17 12:21:33;;;;;;;;;31.00;23.25;;;;;23.47;100.00;101912.59;5106034;27;45580;-87
2021/11/17 12:24:04;;;;;;;;;34.25;25.75;;;;;23.58;100.00;101916.91;5103366;27;45590;-87
2021/11/17 12:26:29;;;;;;;;;27.75;24.00;;;;;23.75;100.00;101907.91;5107366;27;45419;-87
2021/11/17 12:29:05;;;;;;;;;31.50;23.50;;;;;23.86;100.00;101919.22;5106531;27;45802;-90
2021/11/17 12:31:36;;;;;;;;;24.75;23.00;;;;;23.77;100.00;101914.81;5101821;27;45445;-86
2021/11/17 12:34:12;;;;;;;;;33.00;27.25;;;;;23.65;100.00;101912.56;5103634;27;45415;-86
2021/11/17 12:37:10;;;;;;;;;36.25;25.75;;;;;23.62;100.00;101921.81;5090518;27;45385;-86
2021/11/17 12:39:59;;;;;;;;;26.00;24.00;;;;;23.63;100.00;101918.13;5073381;28;46770;-88
2021/11/17 12:42:32;;;;;;;;;26.50;22.50;;;;;23.60;100.00;101922.97;5081857;27;45400;-88
2021/11/17 12:44:59;;;;;;;;;31.50;22.25;;;;;23.59;100.00;101918.59;5104923;27;44715;-88
2021/11/17 12:47:41;;;;;;;;;24.50;19.00;;;;;23.93;100.00;101919.47;5104935;27;45879;-89
2021/11/17 12:50:20;;;;;;;;;21.75;21.25;;;;;24.07;100.00;101923.38;5121888;27;44973;-89
2021/11/17 12:52:56;;;;;;;;;24.25;20.50;;;;;24.12;100.00;101929.16;5127683;27;44950;-89
2021/11/17 12:55:34;;;;;;;;;24.50;22.00;;;;;23.92;100.00;101922.31;5102805;27;44763;-88
2021/11/17 12:58:12;;;;;;;;;23.00;17.50;;;;;23.60;100.00;101920.28;5118760;27;44795;-88
2021/11/17 13:00:44;;;;;;;;;20.75;16.25;;;;;23.38;100.00;101916.25;5093365;27;47645;-90
2021/11/17 13:03:35;;;;;;;;;18.75;14.75;;;;;23.46;100.00;101922.53;5116836;27;49884;-87
2021/11/17 13:06:09;;;;;;;;;11.50;10.75;;;;;23.39;100.00;101924.19;5102985;27;45904;-87
2021/11/17 13:08:36;;;;;;;;;13.75;13.75;;;;;23.48;100.00;101917.00;5100448;27;45608;-87
2021/11/17 13:11:09;;;;;;;;;16.00;13.25;;;;;23.19;100.00;101919.16;5085842;27;48479;-87
2021/11/17 13:13:46;;;;;;;;;17.25;11.00;;;;;23.28;98.90;101907.41;5105181;27;45772;-88
2021/11/17 13:16:20;;;;;;;;;9.00;8.75;;;;;23.05;100.00;101918.69;5084898;27;45357;-87
2021/11/17 13:18:45;;;;;;;;;10.00;9.75;;;;;22.80;100.00;101916.78;5105860;27;45531;-87
2021/11/17 13:21:11;;;;;;;;;12.75;10.25;;;;;22.82;100.00;101919.34;5087055;27;47161;-87
2021/11/17 13:23:44;;;;;;;;;15.50;9.75;;;;;22.74;100.00;101920.97;5104457;27;45468;-87
2021/11/17 13:26:32;;;;;;;;;14.00;9.25;;;;;22.66;100.00;101928.94;5102371;27;45362;-86
2021/11/17 13:29:22;;;;;;;;;11.50;9.00;;;;;22.64;100.00;101930.06;5100889;27;45368;-86
2021/11/17 13:31:50;;;;;;;;;8.25;6.75;;;;;22.34;100.00;101921.34;5101882;27;46300;-86
2021/11/17 13:34:28;;;;;;;;;9.00;7.25;;;;;22.38;100.00;101933.53;5101642;27;45508;-86
2021/11/17 13:36:55;;;;;;;;;9.00;8.00;;;;;22.20;100.00;101932.63;5083350;27;45394;-86
2021/11/17 13:39:32;;;;;;;;;11.50;8.50;;;;;22.21;100.00;101930.78;5102634;27;45411;-86
2021/11/17 13:41:57;;;;;;;;;13.00;8.25;;;;;22.05;100.00;101939.50;5103762;27;45341;-86
2021/11/17 13:44:25;;;;;;;;;10.00;7.25;;;;;22.07;100.00;101931.28;5105731;27;45203;-87
2021/11/17 13:47:04;;;;;;;;;10.25;8.00;;;;;22.00;100.00;101941.78;5087229;27;45488;-86
2021/11/17 13:49:30;;;;;;;;;9.25;8.00;;;;;21.76;100.00;101944.13;5103921;27;45425;-87
2021/11/17 13:51:56;;;;;;;;;12.25;9.25;;;;;21.85;100.00;101952.13;5100798;27;45449;-86
2021/11/17 13:54:22;;;;;;;;;10.75;7.00;;;;;21.81;100.00;101945.38;5095861;27;45364;-86
2021/11/17 13:56:48;;;;;;;;;9.50;9.50;;;;;21.92;100.00;101947.88;5103614;27;45760;-86
2021/11/17 13:59:13;;;;;;;;;10.75;9.25;;;;;21.68;100.00;101939.47;5105535;27;45579;-87
2021/11/17 14:01:39;;;;;;;;;11.25;10.75;;;;;21.92;100.00;101949.72;5107951;27;45177;-87
2021/11/17 14:04:05;;;;;;;;;10.50;7.75;;;;;21.75;100.00;101948.66;5111089;27;45486;-88
2021/11/17 14:06:30;;;;;;;;;9.00;8.50;;;;;21.87;100.00;101943.94;5112202;27;45384;-87